createdAt,value
2022-12-27T00:00:43.164Z,19.47
2022-12-27T00:01:43.084Z,19.47
2022-12-27T00:02:43.122Z,19.47
2022-12-27T00:03:43.060Z,19.47
2022-12-27T00:04:43.088Z,19.44
2022-12-27T00:05:43.029Z,19.46
2022-12-27T00:06:43.030Z,19.44
2022-12-27T00:07:43.028Z,19.44
2022-12-27T00:08:43.045Z,19.43
2022-12-27T00:09:43.002Z,19.43
2022-12-27T00:10:42.989Z,19.44
2022-12-27T00:11:42.958Z,19.44
2022-12-27T00:12:42.982Z,19.43
2022-12-27T00:13:43.227Z,19.44
2022-12-27T00:14:42.952Z,19.41
2022-12-27T00:15:42.933Z,19.41
2022-12-27T00:16:42.951Z,19.41
2022-12-27T00:17:42.908Z,19.41
2022-12-27T00:18:42.942Z,19.40
2022-12-27T00:19:42.890Z,19.41
2022-12-27T00:20:42.909Z,19.39
2022-12-27T00:21:42.869Z,19.40
2022-12-27T00:22:42.868Z,19.39
2022-12-27T00:23:42.854Z,19.40
2022-12-27T00:24:43.245Z,19.40
2022-12-27T00:25:42.819Z,19.37
2022-12-27T00:26:42.899Z,19.39
2022-12-27T00:27:42.807Z,19.39
2022-12-27T00:28:42.820Z,19.37
2022-12-27T00:29:42.806Z,19.36
2022-12-27T00:30:42.793Z,19.37
2022-12-27T00:31:42.866Z,19.37
2022-12-27T00:32:42.783Z,19.36
2022-12-27T00:33:42.770Z,19.37
2022-12-27T00:34:42.740Z,19.36
2022-12-27T00:35:42.771Z,19.33
2022-12-27T00:36:42.742Z,19.32
2022-12-27T00:37:42.701Z,19.33
2022-12-27T00:38:42.740Z,19.32
2022-12-27T00:39:42.684Z,19.33
2022-12-27T00:40:42.689Z,19.33
2022-12-27T00:41:42.680Z,19.32
2022-12-27T00:42:42.668Z,19.32
2022-12-27T00:43:42.757Z,19.31
2022-12-27T00:44:42.650Z,19.32
2022-12-27T00:45:42.662Z,19.32
2022-12-27T00:46:42.623Z,19.31
2022-12-27T00:47:42.602Z,19.31
2022-12-27T00:48:42.614Z,19.31
2022-12-27T00:49:42.613Z,19.31
2022-12-27T00:50:42.602Z,19.29
2022-12-27T00:51:42.564Z,19.29
2022-12-27T00:52:42.565Z,19.28
2022-12-27T00:53:42.544Z,19.28
2022-12-27T00:54:42.777Z,19.28
2022-12-27T00:55:42.510Z,19.28
2022-12-27T00:56:42.561Z,19.29
2022-12-27T00:57:42.513Z,19.28
2022-12-27T00:58:42.532Z,19.25
2022-12-27T00:59:42.495Z,19.28
2022-12-27T01:00:42.537Z,19.26
2022-12-27T01:01:42.568Z,19.25
2022-12-27T01:02:42.444Z,19.25
2022-12-27T01:03:42.768Z,19.25
2022-12-27T01:04:42.436Z,19.25
2022-12-27T01:05:42.432Z,19.23
2022-12-27T01:06:42.403Z,19.25
2022-12-27T01:07:42.436Z,19.22
2022-12-27T01:08:42.397Z,19.25
2022-12-27T01:09:42.395Z,19.23
2022-12-27T01:10:42.374Z,19.22
2022-12-27T01:11:42.374Z,19.22
2022-12-27T01:12:42.373Z,19.22
2022-12-27T01:13:42.383Z,19.22
2022-12-27T01:14:42.337Z,19.21
2022-12-27T01:15:42.321Z,19.22
2022-12-27T01:16:42.323Z,19.21
2022-12-27T01:17:42.326Z,19.19
2022-12-27T01:18:42.332Z,19.21
2022-12-27T01:19:42.285Z,19.21
2022-12-27T01:20:42.270Z,19.19
2022-12-27T01:21:42.273Z,19.21
2022-12-27T01:22:42.253Z,19.19
2022-12-27T01:23:42.264Z,19.18
2022-12-27T01:24:42.244Z,19.18
2022-12-27T01:25:42.222Z,19.16
2022-12-27T01:26:42.261Z,19.18
2022-12-27T01:27:42.240Z,19.18
2022-12-27T01:28:42.172Z,19.16
2022-12-27T01:29:42.193Z,19.16
2022-12-27T01:30:42.182Z,19.14
2022-12-27T01:31:42.202Z,19.16
2022-12-27T01:32:42.177Z,19.14
2022-12-27T01:33:42.231Z,19.14
2022-12-27T01:34:42.124Z,19.14
2022-12-27T01:35:42.131Z,19.13
2022-12-27T01:36:42.105Z,19.14
2022-12-27T01:37:42.104Z,19.11
2022-12-27T01:38:42.084Z,19.14
2022-12-27T01:39:42.106Z,19.13
2022-12-27T01:40:42.089Z,19.14
2022-12-27T01:41:42.743Z,19.13
2022-12-27T01:42:42.063Z,19.13
2022-12-27T01:43:42.036Z,19.11
2022-12-27T01:44:42.016Z,19.11
2022-12-27T01:45:42.070Z,19.11
2022-12-27T01:46:42.007Z,19.13
2022-12-27T01:47:42.022Z,19.11
2022-12-27T01:48:41.964Z,19.11
2022-12-27T01:49:42.010Z,19.10
2022-12-27T01:50:41.975Z,19.08
2022-12-27T01:51:41.992Z,19.10
2022-12-27T01:52:41.941Z,19.11
2022-12-27T01:53:41.957Z,19.08
2022-12-27T01:54:41.944Z,19.08
2022-12-27T01:55:41.923Z,19.08
2022-12-27T01:56:41.935Z,19.08
2022-12-27T01:57:41.892Z,19.08
2022-12-27T01:58:41.876Z,19.08
2022-12-27T01:59:41.880Z,19.08
2022-12-27T02:00:41.874Z,19.07
2022-12-27T02:01:41.969Z,19.07
2022-12-27T02:02:41.927Z,19.07
2022-12-27T02:03:41.845Z,19.07
2022-12-27T02:04:41.816Z,19.06
2022-12-27T02:05:41.902Z,19.06
2022-12-27T02:06:41.789Z,19.06
2022-12-27T02:07:41.792Z,19.06
2022-12-27T02:08:41.759Z,19.06
2022-12-27T02:09:41.786Z,19.04
2022-12-27T02:10:41.754Z,19.04
2022-12-27T02:11:41.763Z,19.04
2022-12-27T02:12:41.725Z,19.04
2022-12-27T02:13:41.745Z,19.06
2022-12-27T02:14:41.738Z,19.02
2022-12-27T02:15:41.728Z,19.02
2022-12-27T02:16:41.765Z,19.02
2022-12-27T02:17:41.687Z,19.02
2022-12-27T02:18:41.707Z,19.02
2022-12-27T02:19:41.698Z,19.02
2022-12-27T02:20:41.654Z,19.00
2022-12-27T02:21:41.673Z,19.00
2022-12-27T02:22:41.614Z,18.99
2022-12-27T02:23:41.655Z,18.99
2022-12-27T02:24:41.603Z,18.99
2022-12-27T02:25:41.633Z,18.98
2022-12-27T02:26:41.594Z,19.00
2022-12-27T02:27:41.584Z,18.99
2022-12-27T02:28:41.554Z,18.98
2022-12-27T02:29:41.576Z,18.98
2022-12-27T02:30:41.615Z,18.98
2022-12-27T02:31:41.590Z,18.98
2022-12-27T02:32:41.537Z,18.98
2022-12-27T02:33:41.539Z,18.98
2022-12-27T02:34:41.507Z,18.98
2022-12-27T02:35:41.506Z,18.98
2022-12-27T02:36:41.476Z,18.98
2022-12-27T02:37:41.505Z,18.98
2022-12-27T02:38:41.454Z,18.95
2022-12-27T02:39:41.463Z,18.95
2022-12-27T02:40:41.440Z,18.94
2022-12-27T02:41:41.483Z,18.94
2022-12-27T02:42:41.446Z,18.95
2022-12-27T02:43:41.440Z,18.95
2022-12-27T02:44:41.426Z,18.95
2022-12-27T02:45:41.503Z,18.95
2022-12-27T02:46:41.472Z,18.98
2022-12-27T02:47:41.385Z,18.95
2022-12-27T02:48:41.383Z,18.95
2022-12-27T02:49:41.384Z,18.98
2022-12-27T02:50:41.326Z,18.95
2022-12-27T02:51:41.371Z,18.95
2022-12-27T02:52:41.333Z,18.98
2022-12-27T02:53:41.314Z,18.98
2022-12-27T02:54:41.337Z,18.99
2022-12-27T02:55:41.328Z,18.99
2022-12-27T02:56:45.965Z,19.00
2022-12-27T02:57:41.273Z,19.00
2022-12-27T02:58:41.250Z,19.00
2022-12-27T02:59:41.294Z,19.00
2022-12-27T03:00:41.273Z,19.00
2022-12-27T03:01:41.344Z,19.02
2022-12-27T03:02:41.340Z,19.02
2022-12-27T03:03:44.657Z,19.02
2022-12-27T03:04:41.258Z,19.04
2022-12-27T03:05:41.205Z,19.04
2022-12-27T03:06:41.237Z,19.06
2022-12-27T03:07:41.216Z,19.06
2022-12-27T03:08:41.144Z,19.07
2022-12-27T03:09:41.167Z,19.07
2022-12-27T03:10:41.147Z,19.07
2022-12-27T03:11:41.158Z,19.08
2022-12-27T03:12:41.107Z,19.07
2022-12-27T03:13:41.136Z,19.08
2022-12-27T03:14:41.100Z,19.10
2022-12-27T03:15:41.162Z,19.11
2022-12-27T03:16:41.085Z,19.11
2022-12-27T03:17:41.065Z,19.10
2022-12-27T03:18:41.071Z,19.13
2022-12-27T03:19:41.032Z,19.13
2022-12-27T03:20:41.025Z,19.13
2022-12-27T03:21:41.091Z,19.13
2022-12-27T03:22:41.015Z,19.16
2022-12-27T03:23:41.013Z,19.16
2022-12-27T03:24:40.995Z,19.14
2022-12-27T03:25:40.997Z,19.18
2022-12-27T03:26:41.018Z,19.19
2022-12-27T03:27:41.017Z,19.18
2022-12-27T03:28:40.967Z,19.18
2022-12-27T03:29:40.948Z,19.18
2022-12-27T03:30:40.965Z,19.19
2022-12-27T03:31:40.941Z,19.19
2022-12-27T03:32:40.907Z,19.19
2022-12-27T03:33:40.924Z,19.21
2022-12-27T03:34:40.882Z,19.21
2022-12-27T03:35:40.896Z,19.21
2022-12-27T03:36:40.895Z,19.22
2022-12-27T03:37:40.884Z,19.21
2022-12-27T03:38:40.856Z,19.22
2022-12-27T03:39:40.863Z,19.22
2022-12-27T03:40:40.825Z,19.23
2022-12-27T03:41:40.837Z,19.23
2022-12-27T03:42:40.827Z,19.25
2022-12-27T03:43:40.819Z,19.26
2022-12-27T03:44:40.808Z,19.25
2022-12-27T03:45:40.795Z,19.26
2022-12-27T03:46:40.774Z,19.26
2022-12-27T03:47:40.798Z,19.25
2022-12-27T03:48:40.750Z,19.28
2022-12-27T03:49:40.735Z,19.26
2022-12-27T03:50:40.708Z,19.29
2022-12-27T03:51:40.745Z,19.26
2022-12-27T03:52:40.707Z,19.28
2022-12-27T03:53:40.703Z,19.28
2022-12-27T03:54:40.695Z,19.28
2022-12-27T03:55:40.695Z,19.29
2022-12-27T03:56:40.675Z,19.29
2022-12-27T03:57:40.675Z,19.29
2022-12-27T03:58:40.671Z,19.29
2022-12-27T03:59:40.689Z,19.31
2022-12-27T04:00:40.645Z,19.32
2022-12-27T04:01:40.679Z,19.31
2022-12-27T04:02:40.767Z,19.32
2022-12-27T04:03:40.632Z,19.32
2022-12-27T04:04:40.573Z,19.33
2022-12-27T04:05:40.586Z,19.32
2022-12-27T04:06:40.552Z,19.33
2022-12-27T04:08:36.567Z,19.36
2022-12-27T04:09:36.539Z,19.36
2022-12-27T04:10:36.531Z,19.36
2022-12-27T04:11:36.514Z,19.36
2022-12-27T04:12:36.511Z,19.37
2022-12-27T04:13:36.531Z,19.39
2022-12-27T04:14:36.490Z,19.37
2022-12-27T04:15:36.528Z,19.37
2022-12-27T04:16:36.482Z,19.37
2022-12-27T04:17:36.453Z,19.37
2022-12-27T04:18:36.489Z,19.37
2022-12-27T04:19:36.751Z,19.40
2022-12-27T04:20:36.435Z,19.39
2022-12-27T04:21:36.402Z,19.39
2022-12-27T04:22:36.424Z,19.40
2022-12-27T04:23:36.414Z,19.40
2022-12-27T04:24:36.410Z,19.39
2022-12-27T04:25:36.371Z,19.40
2022-12-27T04:26:36.412Z,19.41
2022-12-27T04:27:36.385Z,19.40
2022-12-27T04:28:36.541Z,19.40
2022-12-27T04:29:36.333Z,19.41
2022-12-27T04:30:36.344Z,19.41
2022-12-27T04:31:36.385Z,19.41
2022-12-27T04:32:36.338Z,19.41
2022-12-27T04:33:36.293Z,19.43
2022-12-27T04:34:36.353Z,19.43
2022-12-27T04:35:36.261Z,19.43
2022-12-27T04:36:36.276Z,19.43
2022-12-27T04:37:36.292Z,19.43
2022-12-27T04:38:36.265Z,19.43
2022-12-27T04:39:36.292Z,19.44
2022-12-27T04:40:36.287Z,19.46
2022-12-27T04:41:36.212Z,19.44
2022-12-27T04:42:36.263Z,19.46
2022-12-27T04:43:36.190Z,19.44
2022-12-27T04:44:36.214Z,19.44
2022-12-27T04:45:36.165Z,19.46
2022-12-27T04:46:36.204Z,19.46
2022-12-27T04:47:36.141Z,19.44
2022-12-27T04:48:36.157Z,19.46
2022-12-27T04:49:36.122Z,19.47
2022-12-27T04:50:36.155Z,19.47
2022-12-27T04:51:36.123Z,19.47
2022-12-27T04:52:36.127Z,19.48
2022-12-27T04:53:36.091Z,19.48
2022-12-27T04:54:36.083Z,19.48
2022-12-27T04:55:36.056Z,19.50
2022-12-27T04:56:36.067Z,19.50
2022-12-27T04:57:36.054Z,19.50
2022-12-27T04:58:36.033Z,19.51
2022-12-27T04:59:36.048Z,19.51
2022-12-27T05:00:36.054Z,19.54
2022-12-27T05:01:36.093Z,19.55
2022-12-27T05:02:36.150Z,19.54
2022-12-27T05:03:36.055Z,19.56
2022-12-27T05:04:35.997Z,19.56
2022-12-27T05:05:35.941Z,19.56
2022-12-27T05:06:35.992Z,19.56
2022-12-27T05:07:35.938Z,19.58
2022-12-27T05:08:35.970Z,19.56
2022-12-27T05:09:35.921Z,19.58
2022-12-27T05:10:35.900Z,19.58
2022-12-27T05:11:35.949Z,19.59
2022-12-27T05:12:35.913Z,19.59
2022-12-27T05:13:35.887Z,19.62
2022-12-27T05:14:35.946Z,19.61
2022-12-27T05:15:35.876Z,19.62
2022-12-27T05:16:35.875Z,19.62
2022-12-27T05:17:35.858Z,19.63
2022-12-27T05:18:35.860Z,19.63
2022-12-27T05:19:35.823Z,19.65
2022-12-27T05:20:35.830Z,19.65
2022-12-27T05:21:35.791Z,19.66
2022-12-27T05:22:35.801Z,19.66
2022-12-27T05:23:35.818Z,19.66
2022-12-27T05:24:35.770Z,19.66
2022-12-27T05:25:35.735Z,19.66
2022-12-27T05:26:35.748Z,19.68
2022-12-27T05:27:35.728Z,19.69
2022-12-27T05:28:36.272Z,19.69
2022-12-27T05:29:35.731Z,19.71
2022-12-27T05:30:35.757Z,19.69
2022-12-27T05:31:35.783Z,19.71
2022-12-27T05:32:35.722Z,19.69
2022-12-27T05:33:35.661Z,19.73
2022-12-27T05:34:35.684Z,19.73
2022-12-27T05:35:35.660Z,19.73
2022-12-27T05:36:35.666Z,19.71
2022-12-27T05:37:35.649Z,19.73
2022-12-27T05:38:35.620Z,19.73
2022-12-27T05:39:35.772Z,19.73
2022-12-27T05:40:35.643Z,19.74
2022-12-27T05:41:35.592Z,19.76
2022-12-27T05:42:35.611Z,19.74
2022-12-27T05:43:35.620Z,19.76
2022-12-27T05:44:35.609Z,19.76
2022-12-27T05:45:35.560Z,19.76
2022-12-27T05:46:35.680Z,19.77
2022-12-27T05:47:35.533Z,19.77
2022-12-27T05:48:35.568Z,19.78
2022-12-27T05:49:36.460Z,19.77
2022-12-27T05:50:35.522Z,19.78
2022-12-27T05:51:35.511Z,19.78
2022-12-27T05:52:40.752Z,19.78
2022-12-27T05:53:36.452Z,19.78
2022-12-27T05:54:35.486Z,19.78
2022-12-27T05:55:35.476Z,19.78
2022-12-27T05:56:35.448Z,19.80
2022-12-27T05:57:35.435Z,19.81
2022-12-27T05:58:35.442Z,19.78
2022-12-27T05:59:35.407Z,19.80
2022-12-27T06:00:35.403Z,19.80
2022-12-27T06:01:35.508Z,19.81
2022-12-27T06:02:35.578Z,19.80
2022-12-27T06:03:35.396Z,19.81
2022-12-27T06:04:35.369Z,19.83
2022-12-27T06:05:35.374Z,19.83
2022-12-27T06:06:35.367Z,19.81
2022-12-27T06:07:35.331Z,19.83
2022-12-27T06:08:35.386Z,19.83
2022-12-27T06:09:35.301Z,19.84
2022-12-27T06:10:35.341Z,19.84
2022-12-27T06:11:35.291Z,19.84
2022-12-27T06:12:35.303Z,19.86
2022-12-27T06:13:35.303Z,19.84
2022-12-27T06:14:35.280Z,19.84
2022-12-27T06:15:35.260Z,19.86
2022-12-27T06:16:35.270Z,19.84
2022-12-27T06:17:35.221Z,19.87
2022-12-27T06:18:35.213Z,19.86
2022-12-27T06:19:35.191Z,19.86
2022-12-27T06:20:35.232Z,19.87
2022-12-27T06:21:35.171Z,19.87
2022-12-27T06:22:35.173Z,19.87
2022-12-27T06:23:35.214Z,19.88
2022-12-27T06:24:35.187Z,19.88
2022-12-27T06:25:35.150Z,19.87
2022-12-27T06:26:35.165Z,19.88
2022-12-27T06:27:35.104Z,19.91
2022-12-27T06:28:35.153Z,19.88
2022-12-27T06:29:35.129Z,19.88
2022-12-27T06:30:36.392Z,19.88
2022-12-27T06:31:35.114Z,19.91
2022-12-27T06:32:35.065Z,19.91
2022-12-27T06:33:35.065Z,19.91
2022-12-27T06:34:35.052Z,19.91
2022-12-27T06:35:35.068Z,19.91
2022-12-27T06:36:35.711Z,19.92
2022-12-27T06:37:35.009Z,19.91
2022-12-27T06:38:35.004Z,19.92
2022-12-27T06:39:35.029Z,19.92
2022-12-27T06:40:35.015Z,19.94
2022-12-27T06:41:34.989Z,19.92
2022-12-27T06:42:34.965Z,19.92
2022-12-27T06:43:34.986Z,19.95
2022-12-27T06:44:35.271Z,19.94
2022-12-27T06:45:35.054Z,19.92
2022-12-27T06:46:34.946Z,19.94
2022-12-27T06:47:34.922Z,19.94
2022-12-27T06:48:34.945Z,19.94
2022-12-27T06:49:34.892Z,19.94
2022-12-27T06:50:34.901Z,19.94
2022-12-27T06:51:34.851Z,19.96
2022-12-27T06:52:34.931Z,19.96
2022-12-27T06:53:34.833Z,19.95
2022-12-27T06:54:34.874Z,19.95
2022-12-27T06:55:34.827Z,19.96
2022-12-27T06:56:34.861Z,19.96
2022-12-27T06:57:34.846Z,19.96
2022-12-27T06:58:34.825Z,19.95
2022-12-27T06:59:34.806Z,19.98
2022-12-27T07:00:34.793Z,19.96
2022-12-27T07:01:34.883Z,19.98
2022-12-27T07:02:34.946Z,19.98
2022-12-27T07:03:34.735Z,19.98
2022-12-27T07:04:34.782Z,19.98
2022-12-27T07:05:34.733Z,19.98
2022-12-27T07:06:34.743Z,19.98
2022-12-27T07:07:34.738Z,19.98
2022-12-27T07:08:34.705Z,19.99
2022-12-27T07:09:34.675Z,19.96
2022-12-27T07:10:34.735Z,19.98
2022-12-27T07:11:34.677Z,19.99
2022-12-27T07:12:36.841Z,19.99
2022-12-27T07:13:34.669Z,19.99
2022-12-27T07:14:34.654Z,20.01
2022-12-27T07:15:34.607Z,19.99
2022-12-27T07:16:34.820Z,20.01
2022-12-27T07:17:34.590Z,20.01
2022-12-27T07:18:34.606Z,19.99
2022-12-27T07:19:34.562Z,20.01
2022-12-27T07:20:34.581Z,20.02
2022-12-27T07:21:34.522Z,20.01
2022-12-27T07:22:35.654Z,20.01
2022-12-27T07:23:34.565Z,20.01
2022-12-27T07:24:35.539Z,20.02
2022-12-27T07:25:34.507Z,20.02
2022-12-27T07:26:34.559Z,20.02
2022-12-27T07:27:34.537Z,20.02
2022-12-27T07:28:34.575Z,20.03
2022-12-27T07:29:34.464Z,20.02
2022-12-27T07:30:35.437Z,20.03
2022-12-27T07:31:34.504Z,20.03
2022-12-27T07:32:34.458Z,20.03
2022-12-27T07:33:34.458Z,20.02
2022-12-27T07:34:34.444Z,20.02
2022-12-27T07:35:34.443Z,20.05
2022-12-27T07:36:34.451Z,20.03
2022-12-27T07:37:34.389Z,20.03
2022-12-27T07:38:34.430Z,20.05
2022-12-27T07:39:34.393Z,20.05
2022-12-27T07:40:34.437Z,20.05
2022-12-27T07:41:34.392Z,20.05
2022-12-27T07:42:34.365Z,20.05
2022-12-27T07:43:34.327Z,20.06
2022-12-27T07:44:34.323Z,20.05
2022-12-27T07:45:34.392Z,20.05
2022-12-27T07:46:34.311Z,20.05
2022-12-27T07:47:34.283Z,20.06
2022-12-27T07:48:34.300Z,20.06
2022-12-27T07:49:34.224Z,20.06
2022-12-27T07:50:34.273Z,20.06
2022-12-27T07:51:34.464Z,20.06
2022-12-27T07:52:34.258Z,20.06
2022-12-27T07:53:34.240Z,20.06
2022-12-27T07:54:34.226Z,20.06
2022-12-27T07:55:34.251Z,20.06
2022-12-27T07:56:34.221Z,20.08
2022-12-27T07:57:34.194Z,20.05
2022-12-27T07:58:34.196Z,20.08
2022-12-27T07:59:34.128Z,20.08
2022-12-27T08:00:34.118Z,20.06
2022-12-27T08:01:34.106Z,20.08
2022-12-27T08:02:34.209Z,20.10
2022-12-27T08:03:34.099Z,20.10
2022-12-27T08:04:34.069Z,20.10
2022-12-27T08:05:34.067Z,20.08
2022-12-27T08:06:34.078Z,20.08
2022-12-27T08:07:34.055Z,20.08
2022-12-27T08:08:34.054Z,20.08
2022-12-27T08:09:33.997Z,20.08
2022-12-27T08:10:34.034Z,20.10
2022-12-27T08:11:34.016Z,20.10
2022-12-27T08:12:34.005Z,20.08
2022-12-27T08:13:33.993Z,20.10
2022-12-27T08:14:33.955Z,20.11
2022-12-27T08:15:33.973Z,20.11
2022-12-27T08:16:33.987Z,20.11
2022-12-27T08:17:33.946Z,20.10
2022-12-27T08:18:33.937Z,20.10
2022-12-27T08:19:33.935Z,20.11
2022-12-27T08:20:33.915Z,20.11
2022-12-27T08:21:33.899Z,20.11
2022-12-27T08:22:33.884Z,20.11
2022-12-27T08:23:33.891Z,20.11
2022-12-27T08:24:33.857Z,20.10
2022-12-27T08:25:33.935Z,20.13
2022-12-27T08:26:33.825Z,20.11
2022-12-27T08:27:33.839Z,20.13
2022-12-27T08:28:33.803Z,20.11
2022-12-27T08:29:33.825Z,20.14
2022-12-27T08:30:33.884Z,20.11
2022-12-27T08:31:33.783Z,20.14
2022-12-27T08:32:33.792Z,20.14
2022-12-27T08:33:33.786Z,20.14
2022-12-27T08:34:33.746Z,20.11
2022-12-27T08:35:52.207Z,20.14
2022-12-27T08:36:54.751Z,20.14
2022-12-27T08:37:34.727Z,20.13
2022-12-27T08:38:33.706Z,20.13
2022-12-27T08:39:33.736Z,20.14
2022-12-27T08:40:33.698Z,20.14
2022-12-27T08:41:33.694Z,20.14
2022-12-27T08:42:33.656Z,20.16
2022-12-27T08:43:33.685Z,20.14
2022-12-27T08:44:33.666Z,20.14
2022-12-27T08:45:33.703Z,20.16
2022-12-27T08:46:34.628Z,20.14
2022-12-27T08:47:33.635Z,20.16
2022-12-27T08:48:33.651Z,20.16
2022-12-27T08:49:33.616Z,20.17
2022-12-27T08:50:33.586Z,20.17
2022-12-27T08:51:40.786Z,20.16
2022-12-27T08:52:34.627Z,20.16
2022-12-27T08:53:33.628Z,20.16
2022-12-27T08:54:33.565Z,20.16
2022-12-27T08:55:33.609Z,20.17
2022-12-27T08:56:33.549Z,20.17
2022-12-27T08:57:33.533Z,20.17
2022-12-27T08:58:33.688Z,20.17
2022-12-27T08:59:33.630Z,20.16
2022-12-27T09:00:33.485Z,20.16
2022-12-27T09:01:33.781Z,20.17
2022-12-27T09:02:33.602Z,20.17
2022-12-27T09:03:33.494Z,20.17
2022-12-27T09:04:33.479Z,20.17
2022-12-27T09:05:39.633Z,20.16
2022-12-27T09:06:34.419Z,20.16
2022-12-27T09:07:33.487Z,20.14
2022-12-27T09:09:30.249Z,20.17
2022-12-27T09:10:30.224Z,20.13
2022-12-27T09:11:30.195Z,20.11
2022-12-27T09:12:30.195Z,20.10
2022-12-27T09:13:30.155Z,20.01
2022-12-27T09:14:30.194Z,19.99
2022-12-27T09:15:30.180Z,19.96
2022-12-27T09:16:30.148Z,19.91
2022-12-27T09:17:30.121Z,19.86
2022-12-27T09:18:30.122Z,19.84
2022-12-27T09:19:30.118Z,19.84
2022-12-27T09:20:30.139Z,19.80
2022-12-27T09:21:30.124Z,19.80
2022-12-27T09:22:30.097Z,19.77
2022-12-27T09:23:30.065Z,19.78
2022-12-27T09:24:30.082Z,19.77
2022-12-27T09:25:30.411Z,19.78
2022-12-27T09:26:30.072Z,19.78
2022-12-27T09:27:30.029Z,19.78
2022-12-27T09:28:30.037Z,19.78
2022-12-27T09:29:30.042Z,19.78
2022-12-27T09:30:30.007Z,19.78
2022-12-27T09:31:30.079Z,19.80
2022-12-27T09:32:29.996Z,19.81
2022-12-27T09:33:29.975Z,19.81
2022-12-27T09:34:29.977Z,19.83
2022-12-27T09:35:30.211Z,19.84
2022-12-27T09:36:29.949Z,19.86
2022-12-27T09:37:29.945Z,19.86
2022-12-27T09:38:29.951Z,19.87
2022-12-27T09:39:29.897Z,19.87
2022-12-27T09:40:29.902Z,19.88
2022-12-27T09:42:33.851Z,19.91
2022-12-27T09:42:57.689Z,19.91
2022-12-27T09:43:30.858Z,19.91
2022-12-27T09:44:29.887Z,19.92
2022-12-27T09:45:30.817Z,19.94
2022-12-27T09:46:29.912Z,19.94
2022-12-27T09:47:29.865Z,19.95
2022-12-27T09:48:33.211Z,19.94
2022-12-27T09:49:29.807Z,19.95
2022-12-27T09:50:29.817Z,19.98
2022-12-27T09:51:29.838Z,19.98
2022-12-27T09:52:29.786Z,19.99
2022-12-27T09:53:30.289Z,19.99
2022-12-27T09:54:29.765Z,20.02
2022-12-27T09:55:29.736Z,19.99
2022-12-27T09:56:54.051Z,20.01
2022-12-27T09:57:30.717Z,20.02
2022-12-27T09:58:29.722Z,20.01
2022-12-27T09:59:29.715Z,20.03
2022-12-27T10:00:34.477Z,20.02
2022-12-27T10:01:30.769Z,20.03
2022-12-27T10:02:29.767Z,20.05
2022-12-27T10:03:29.657Z,20.05
2022-12-27T10:04:45.443Z,20.05
2022-12-27T10:05:30.668Z,20.05
2022-12-27T10:06:29.673Z,20.05
2022-12-27T10:07:29.626Z,20.05
2022-12-27T10:08:29.604Z,20.06
2022-12-27T10:09:30.576Z,20.08
2022-12-27T10:10:29.601Z,20.08
2022-12-27T10:11:29.587Z,20.08
2022-12-27T10:12:31.808Z,20.08
2022-12-27T10:13:29.609Z,20.08
2022-12-27T10:14:29.546Z,20.10
2022-12-27T10:15:29.571Z,20.08
2022-12-27T10:16:29.562Z,20.08
2022-12-27T10:17:29.558Z,20.10
2022-12-27T10:18:29.894Z,20.10
2022-12-27T10:19:29.522Z,20.10
2022-12-27T10:20:29.509Z,20.10
2022-12-27T10:21:29.530Z,20.10
2022-12-27T10:22:29.479Z,20.11
2022-12-27T10:23:29.549Z,20.13
2022-12-27T10:24:30.406Z,20.13
2022-12-27T10:25:29.456Z,20.14
2022-12-27T10:26:29.466Z,20.13
2022-12-27T10:27:29.474Z,20.13
2022-12-27T10:28:29.432Z,20.13
2022-12-27T10:29:29.508Z,20.14
2022-12-27T10:30:29.408Z,20.14
2022-12-27T10:31:29.477Z,20.13
2022-12-27T10:32:29.370Z,20.14
2022-12-27T10:33:29.459Z,20.16
2022-12-27T10:34:29.367Z,20.16
2022-12-27T10:35:29.439Z,20.16
2022-12-27T10:36:29.329Z,20.17
2022-12-27T10:37:29.349Z,20.16
2022-12-27T10:38:29.307Z,20.14
2022-12-27T10:39:29.310Z,20.17
2022-12-27T10:40:34.185Z,20.17
2022-12-27T10:41:30.307Z,20.17
2022-12-27T10:42:29.295Z,20.17
2022-12-27T10:43:29.294Z,20.18
2022-12-27T10:44:29.250Z,20.17
2022-12-27T10:45:29.299Z,20.17
2022-12-27T10:46:33.042Z,20.17
2022-12-27T10:47:29.235Z,20.18
2022-12-27T10:48:47.448Z,20.18
2022-12-27T10:49:30.220Z,20.17
2022-12-27T10:50:29.175Z,20.20
2022-12-27T10:51:29.207Z,20.20
2022-12-27T10:52:29.227Z,20.20
2022-12-27T10:53:29.173Z,20.20
2022-12-27T10:54:29.190Z,20.21
2022-12-27T10:55:29.159Z,20.20
2022-12-27T10:56:29.218Z,20.21
2022-12-27T10:57:29.196Z,20.20
2022-12-27T10:58:29.388Z,20.21
2022-12-27T10:59:29.174Z,20.20
2022-12-27T11:00:29.121Z,20.21
2022-12-27T11:01:29.206Z,20.21
2022-12-27T11:02:29.220Z,20.20
2022-12-27T11:03:29.058Z,20.20
2022-12-27T11:04:29.266Z,20.20
2022-12-27T11:05:29.181Z,20.21
2022-12-27T11:06:29.032Z,20.20
2022-12-27T11:07:29.027Z,20.21
2022-12-27T11:08:29.055Z,20.20
2022-12-27T11:09:29.012Z,20.21
2022-12-27T11:10:29.016Z,20.21
2022-12-27T11:11:29.025Z,20.20
2022-12-27T11:12:28.986Z,20.21
2022-12-27T11:13:28.984Z,20.21
2022-12-27T11:14:28.964Z,20.21
2022-12-27T11:15:28.975Z,20.21
2022-12-27T11:16:28.977Z,20.21
2022-12-27T11:17:28.957Z,20.21
2022-12-27T11:18:28.954Z,20.23
2022-12-27T11:19:28.937Z,20.21
2022-12-27T11:20:28.926Z,20.24
2022-12-27T11:21:28.885Z,20.23
2022-12-27T11:22:28.885Z,20.23
2022-12-27T11:23:28.917Z,20.24
2022-12-27T11:24:28.838Z,20.23
2022-12-27T11:25:29.398Z,20.23
2022-12-27T11:26:29.009Z,20.23
2022-12-27T11:27:28.842Z,20.24
2022-12-27T11:28:28.818Z,20.23
2022-12-27T11:29:28.829Z,20.23
2022-12-27T11:30:28.812Z,20.23
2022-12-27T11:31:28.813Z,20.24
2022-12-27T11:32:28.787Z,20.23
2022-12-27T11:33:28.776Z,20.24
2022-12-27T11:34:28.739Z,20.24
2022-12-27T11:35:28.777Z,20.23
2022-12-27T11:36:28.759Z,20.24
2022-12-27T11:37:28.766Z,20.24
2022-12-27T11:38:28.721Z,20.26
2022-12-27T11:39:28.749Z,20.26
2022-12-27T11:40:29.648Z,20.28
2022-12-27T11:41:28.733Z,20.29
2022-12-27T11:42:28.702Z,20.31
2022-12-27T11:43:28.683Z,20.29
2022-12-27T11:44:28.638Z,20.31
2022-12-27T11:45:28.689Z,20.29
2022-12-27T11:46:28.655Z,20.29
2022-12-27T11:47:28.629Z,20.32
2022-12-27T11:48:28.616Z,20.32
2022-12-27T11:49:29.562Z,20.32
2022-12-27T11:50:29.469Z,20.33
2022-12-27T11:51:28.589Z,20.33
2022-12-27T11:52:28.575Z,20.33
2022-12-27T11:53:28.605Z,20.35
2022-12-27T11:54:28.568Z,20.35
2022-12-27T11:55:28.553Z,20.33
2022-12-27T11:56:28.634Z,20.35
2022-12-27T11:57:28.535Z,20.35
2022-12-27T11:58:28.514Z,20.35
2022-12-27T11:59:28.508Z,20.36
2022-12-27T12:00:28.490Z,20.36
2022-12-27T12:01:28.548Z,20.35
2022-12-27T12:02:28.572Z,20.36
2022-12-27T12:03:28.516Z,20.36
2022-12-27T12:04:28.438Z,20.38
2022-12-27T12:05:28.492Z,20.38
2022-12-27T12:06:34.159Z,20.38
2022-12-27T12:07:29.448Z,20.39
2022-12-27T12:08:28.415Z,20.38
2022-12-27T12:09:28.443Z,20.39
2022-12-27T12:10:28.465Z,20.38
2022-12-27T12:11:28.398Z,20.39
2022-12-27T12:12:28.851Z,20.39
2022-12-27T12:13:28.378Z,20.38
2022-12-27T12:14:28.369Z,20.39
2022-12-27T12:15:28.380Z,20.39
2022-12-27T12:16:28.340Z,20.38
2022-12-27T12:17:33.989Z,20.39
2022-12-27T12:18:29.427Z,20.36
2022-12-27T12:19:28.309Z,20.38
2022-12-27T12:20:28.296Z,20.38
2022-12-27T12:21:28.293Z,20.38
2022-12-27T12:22:28.259Z,20.36
2022-12-27T12:23:28.280Z,20.35
2022-12-27T12:24:28.320Z,20.36
2022-12-27T12:25:28.301Z,20.35
2022-12-27T12:26:28.301Z,20.35
2022-12-27T12:27:28.229Z,20.35
2022-12-27T12:28:57.076Z,20.33
2022-12-27T12:29:29.370Z,20.35
2022-12-27T12:30:28.192Z,20.33
2022-12-27T12:31:28.219Z,20.33
2022-12-27T12:32:28.168Z,20.35
2022-12-27T12:33:28.175Z,20.32
2022-12-27T12:34:28.143Z,20.32
2022-12-27T12:35:28.169Z,20.32
2022-12-27T12:36:28.123Z,20.32
2022-12-27T12:37:28.139Z,20.32
2022-12-27T12:38:28.111Z,20.33
2022-12-27T12:39:28.450Z,20.33
2022-12-27T12:40:28.131Z,20.32
2022-12-27T12:41:28.104Z,20.33
2022-12-27T12:42:28.059Z,20.33
2022-12-27T12:43:28.106Z,20.32
2022-12-27T12:44:28.040Z,20.32
2022-12-27T12:45:28.129Z,20.32
2022-12-27T12:46:28.035Z,20.33
2022-12-27T12:47:28.063Z,20.32
2022-12-27T12:48:28.011Z,20.33
2022-12-27T12:49:28.020Z,20.33
2022-12-27T12:50:28.014Z,20.32
2022-12-27T12:51:27.992Z,20.33
2022-12-27T12:52:27.962Z,20.32
2022-12-27T12:53:27.963Z,20.33
2022-12-27T12:54:27.960Z,20.32